Time;durP1;ratioP1;P1;durP2;ratioP2;P2;SDS_P1;SDS_P2;PMS_P1;PMS_P2;Temp;Humidity;BMP_temperature;BMP_pressure;BME280_temperature;BME280_humidity;BME280_pressure;Samples;Min_cycle;Max_cycle;Signal;HPM_P1;HPM_P2
2021/04/16 00:00:21;;;;;;;13.20;6.25;;;;;;;1.88;100.00;102938.22;5169378;28;20165;-77
2021/04/16 00:02:52;;;;;;;14.63;6.72;;;;;;;1.72;100.00;102932.66;5168756;28;20027;-77
2021/04/16 00:05:23;;;;;;;16.10;7.10;;;;;;;1.64;100.00;102934.72;5168615;28;20037;-77
2021/04/16 00:07:54;;;;;;;13.68;7.28;;;;;;;1.62;100.00;102931.28;5168268;28;20045;-77
2021/04/16 00:10:30;;;;;;;18.52;7.15;;;;;;;1.60;100.00;102929.59;5167796;28;20049;-77
2021/04/16 00:13:01;;;;;;;21.27;7.32;;;;;;;1.62;100.00;102920.69;5167360;28;20024;-78
2021/04/16 00:15:35;;;;;;;15.00;7.07;;;;;;;1.66;100.00;102918.81;5167794;28;20030;-78
2021/04/16 00:18:08;;;;;;;15.48;7.28;;;;;;;1.60;100.00;102922.53;5166112;28;20023;-77
2021/04/16 00:20:39;;;;;;;14.00;7.07;;;;;;;1.58;100.00;102916.44;5166905;28;20049;-78
2021/04/16 00:23:10;;;;;;;18.88;7.88;;;;;;;1.62;100.00;102917.19;5166613;28;20026;-78
2021/04/16 00:25:41;;;;;;;13.88;6.63;;;;;;;1.56;100.00;102915.63;5167946;28;20030;-77
2021/04/16 00:28:12;;;;;;;18.33;7.03;;;;;;;1.55;100.00;102908.59;5169302;28;20022;-78
2021/04/16 00:30:45;;;;;;;17.27;8.07;;;;;;;1.51;100.00;102912.31;5174701;28;20097;-78
2021/04/16 00:33:16;;;;;;;16.67;7.00;;;;;;;1.51;100.00;102914.94;5176115;28;20392;-78
2021/04/16 00:35:47;;;;;;;12.55;6.25;;;;;;;1.50;100.00;102914.06;5174759;28;20110;-77
2021/04/16 00:38:19;;;;;;;18.15;6.95;;;;;;;1.47;100.00;102908.03;5175308;28;20485;-78
2021/04/16 00:40:54;;;;;;;16.50;7.22;;;;;;;1.45;100.00;102912.50;5174465;28;20042;-78
2021/04/16 00:43:29;;;;;;;17.23;6.65;;;;;;;1.37;100.00;102904.00;5175480;28;20507;-77
2021/04/16 00:46:31;;;;;;;13.17;6.53;;;;;;;1.28;100.00;102906.06;5173942;28;20026;-78
2021/04/16 00:49:05;;;;;;;11.75;5.70;;;;;;;1.20;100.00;102901.97;5176128;28;20069;-78
2021/04/16 00:51:41;;;;;;;16.65;6.45;;;;;;;1.10;100.00;102901.44;5172619;28;20407;-77
2021/04/16 00:54:16;;;;;;;16.88;6.78;;;;;;;1.03;100.00;102900.81;5171312;28;20033;-78
2021/04/16 00:56:48;;;;;;;;;;;;;;;0.98;100.00;102908.03;5171099;28;20041;-79
2021/04/16 00:59:23;;;;;;;13.18;6.30;;;;;;;0.93;100.00;102906.47;5172213;28;19910;-78
2021/04/16 01:01:56;;;;;;;19.80;6.78;;;;;;;0.89;100.00;102896.91;5172069;28;20065;-78
2021/04/16 01:04:29;;;;;;;15.57;6.25;;;;;;;0.84;100.00;102904.16;5172928;28;20049;-78
2021/04/16 01:07:03;;;;;;;13.68;6.55;;;;;;;0.82;100.00;102904.22;5173643;28;20049;-77
2021/04/16 01:09:46;;;;;;;13.57;6.85;;;;;;;0.75;100.00;102900.91;5172836;28;20420;-77
2021/04/16 01:12:18;;;;;;;17.27;6.25;;;;;;;0.69;100.00;102901.09;5171683;28;20033;-77
2021/04/16 01:14:54;;;;;;;15.05;6.85;;;;;;;0.66;100.00;102901.22;5171833;28;20026;-78
2021/04/16 01:17:41;;;;;;;15.93;6.82;;;;;;;0.66;100.00;102895.09;5173521;28;20043;-78
2021/04/16 01:20:25;;;;;;;12.57;6.57;;;;;;;0.67;100.00;102897.66;5172804;28;20049;-78
2021/04/16 01:23:13;;;;;;;14.50;6.40;;;;;;;0.67;100.00;102892.38;5171552;28;20069;-78
2021/04/16 01:25:44;;;;;;;14.73;6.57;;;;;;;0.79;100.00;102891.09;5173644;28;20040;-78
2021/04/16 01:28:16;;;;;;;19.88;6.72;;;;;;;0.81;100.00;102891.91;5168251;28;20101;-78
2021/04/16 01:31:01;;;;;;;13.85;6.70;;;;;;;0.79;100.00;102888.44;5172300;28;20034;-78
2021/04/16 01:33:33;;;;;;;14.15;6.88;;;;;;;0.85;100.00;102890.00;5173623;28;20022;-78
2021/04/16 01:36:06;;;;;;;13.68;6.05;;;;;;;0.85;100.00;102892.66;5172845;28;20154;-78
2021/04/16 01:38:38;;;;;;;14.10;5.60;;;;;;;0.89;100.00;102892.50;5173513;28;20488;-78
2021/04/16 01:41:12;;;;;;;13.77;6.25;;;;;;;0.87;100.00;102890.84;5173581;28;20057;-78
2021/04/16 01:43:52;;;;;;;13.20;6.78;;;;;;;0.83;100.00;102890.06;5172387;28;20539;-78
2021/04/16 01:46:23;;;;;;;12.82;6.18;;;;;;;0.81;100.00;102891.06;5173010;28;20062;-78
2021/04/16 01:48:58;;;;;;;12.43;5.82;;;;;;;0.77;100.00;102891.16;5173357;28;20026;-78
2021/04/16 01:51:32;;;;;;;11.35;5.85;;;;;;;0.70;100.00;102881.72;5171869;28;20499;-78
2021/04/16 01:54:08;;;;;;;16.60;6.05;;;;;;;0.60;100.00;102888.22;5171307;28;20432;-78
2021/04/16 01:56:41;;;;;;;13.25;6.13;;;;;;;0.58;100.00;102889.19;5171403;28;20045;-78
2021/04/16 01:59:14;;;;;;;14.15;6.47;;;;;;;0.49;100.00;102885.06;5172371;28;20101;-78
2021/04/16 02:01:46;;;;;;;14.32;6.20;;;;;;;0.49;100.00;102885.06;5172315;28;20081;-78
2021/04/16 02:04:17;;;;;;;16.40;5.50;;;;;;;0.54;100.00;102884.91;5173075;28;20392;-77
2021/04/16 02:06:52;;;;;;;10.52;5.65;;;;;;;0.55;100.00;102882.22;5171926;28;20090;-77
2021/04/16 02:09:26;;;;;;;12.50;6.00;;;;;;;0.48;100.00;102881.56;5172335;28;20126;-78
2021/04/16 02:12:08;;;;;;;15.38;6.13;;;;;;;0.47;100.00;102881.63;5161496;28;20451;-78
2021/04/16 02:14:40;;;;;;;12.60;5.53;;;;;;;0.43;100.00;102885.28;5171491;28;20378;-78
2021/04/16 02:17:14;;;;;;;15.27;5.95;;;;;;;0.34;100.00;102889.09;5170928;28;20431;-78
2021/04/16 02:19:46;;;;;;;15.43;6.28;;;;;;;0.27;100.00;102886.72;5172074;28;20018;-78
2021/04/16 02:22:20;;;;;;;14.65;5.88;;;;;;;0.22;100.00;102881.56;5172305;28;20113;-78
2021/04/16 02:24:51;;;;;;;11.68;5.88;;;;;;;0.18;100.00;102882.59;5172691;28;20029;-78
2021/04/16 02:27:25;;;;;;;16.83;5.90;;;;;;;0.09;100.00;102878.47;5159003;28;20114;-79
2021/04/16 02:29:56;;;;;;;15.70;6.47;;;;;;;0.02;100.00;102882.22;5171350;28;20037;-78
2021/04/16 02:32:27;;;;;;;11.20;6.10;;;;;;;-0.04;100.00;102880.63;5172328;28;20504;-78
2021/04/16 02:34:57;;;;;;;16.35;7.55;;;;;;;-0.05;100.00;102880.66;5172381;28;20081;-78
2021/04/16 02:37:28;;;;;;;11.15;5.70;;;;;;;-0.06;100.00;102881.59;5170619;28;20030;-78
2021/04/16 02:39:58;;;;;;;13.02;6.03;;;;;;;-0.10;100.00;102880.84;5171791;28;20027;-78
2021/04/16 02:42:29;;;;;;;13.40;5.68;;;;;;;-0.16;100.00;102880.16;5172681;28;20384;-77
2021/04/16 02:44:59;;;;;;;11.85;5.68;;;;;;;-0.19;100.00;102874.97;5172222;28;20019;-77
2021/04/16 02:47:30;;;;;;;10.65;6.03;;;;;;;-0.19;100.00;102883.75;5172075;28;20039;-78
2021/04/16 02:50:00;;;;;;;16.08;5.70;;;;;;;-0.10;100.00;102877.31;5171223;28;20022;-78
2021/04/16 02:52:31;;;;;;;14.15;6.90;;;;;;;-0.03;100.00;102884.13;5171267;28;20081;-78
2021/04/16 02:55:03;;;;;;;16.13;6.80;;;;;;;-0.07;100.00;102878.09;5169619;28;20026;-78
2021/04/16 02:57:33;;;;;;;9.63;5.63;;;;;;;-0.07;100.00;102880.72;5167690;28;20061;-77
2021/04/16 03:00:07;;;;;;;13.00;5.72;;;;;;;-0.13;100.00;102875.66;5167791;28;20054;-78
2021/04/16 03:02:38;;;;;;;14.77;5.75;;;;;;;-0.17;100.00;102879.28;5168277;28;20468;-78
2021/04/16 03:05:09;;;;;;;16.13;6.25;;;;;;;-0.20;100.00;102881.16;5169103;28;20085;-78
2021/04/16 03:07:39;;;;;;;19.23;6.50;;;;;;;-0.26;100.00;102876.91;5168041;28;20026;-78
2021/04/16 03:10:14;;;;;;;12.82;5.93;;;;;;;-0.33;100.00;102878.91;5167972;28;20025;-77
2021/04/16 03:12:44;;;;;;;16.83;5.80;;;;;;;-0.37;100.00;102879.88;5168989;28;20027;-78
2021/04/16 03:15:15;;;;;;;15.48;5.68;;;;;;;-0.42;100.00;102873.88;5169066;28;20026;-78
2021/04/16 03:17:46;;;;;;;16.00;5.90;;;;;;;-0.44;100.00;102873.09;5170089;28;20527;-78
2021/04/16 03:20:18;;;;;;;9.30;5.30;;;;;;;-0.43;100.00;102877.44;5169898;28;20022;-78
2021/04/16 03:22:49;;;;;;;13.85;7.07;;;;;;;-0.43;100.00;102879.22;5168896;28;20057;-77
2021/04/16 03:25:20;;;;;;;12.93;6.07;;;;;;;-0.47;100.00;102873.16;5170218;28;20018;-78
2021/04/16 03:27:50;;;;;;;12.10;5.70;;;;;;;-0.49;100.00;102875.00;5163923;28;20030;-76
2021/04/16 03:30:23;;;;;;;11.00;5.80;;;;;;;-0.51;100.00;102868.88;5169674;28;20037;-78
2021/04/16 03:32:54;;;;;;;13.35;5.85;;;;;;;-0.52;100.00;102873.31;5170178;28;20022;-78
2021/04/16 03:35:25;;;;;;;13.30;5.60;;;;;;;-0.57;100.00;102867.31;5169942;28;20517;-77
2021/04/16 03:37:56;;;;;;;12.60;5.68;;;;;;;-0.58;100.00;102873.50;5170178;28;20026;-78
2021/04/16 03:40:31;;;;;;;14.55;5.20;;;;;;;-0.58;100.00;102865.56;5170328;28;20512;-78
2021/04/16 03:43:01;;;;;;;11.57;5.78;;;;;;;-0.60;100.00;102869.19;5171043;28;20038;-78
2021/04/16 03:45:31;;;;;;;12.45;6.18;;;;;;;-0.62;100.00;102869.22;5169382;28;20489;-78
2021/04/16 03:48:02;;;;;;;12.38;4.82;;;;;;;-0.67;100.00;102872.88;5170437;28;20030;-78
2021/04/16 03:50:35;;;;;;;17.05;5.13;;;;;;;-0.71;100.00;102881.78;5169320;28;20034;-78
2021/04/16 03:53:06;;;;;;;13.13;6.38;;;;;;;-0.73;100.00;102876.56;5169864;28;20504;-78
2021/04/16 03:55:38;;;;;;;11.13;5.60;;;;;;;-0.70;100.00;102878.25;5170273;28;20034;-77
2021/04/16 03:58:11;;;;;;;10.38;5.47;;;;;;;-0.64;100.00;102876.31;5148107;28;20583;-78
2021/04/16 04:00:41;;;;;;;13.02;5.57;;;;;;;-0.64;100.00;102878.94;5164777;28;20034;-78
2021/04/16 04:03:14;;;;;;;13.02;5.25;;;;;;;-0.68;100.00;102884.34;5164142;28;20031;-78
2021/04/16 04:05:44;;;;;;;16.10;6.10;;;;;;;-0.76;100.00;102879.28;5164996;28;20480;-78
2021/04/16 04:08:15;;;;;;;11.88;5.53;;;;;;;-0.80;100.00;102875.03;5164057;28;20109;-78
2021/04/16 04:10:46;;;;;;;11.13;5.65;;;;;;;-0.80;100.00;102880.31;5164065;28;20026;-78
2021/04/16 04:13:16;;;;;;;14.18;5.88;;;;;;;-0.75;100.00;102880.13;5163373;28;20065;-78
2021/04/16 04:15:47;;;;;;;11.95;5.07;;;;;;;-0.70;100.00;102880.88;5163343;28;20081;-77
2021/04/16 04:18:17;;;;;;;10.25;4.82;;;;;;;-0.63;100.00;102871.91;5163478;28;20026;-78
2021/04/16 04:20:48;;;;;;;13.40;5.22;;;;;;;-0.64;100.00;102881.59;5164365;28;20032;-77
2021/04/16 04:23:18;;;;;;;17.10;5.88;;;;;;;-0.63;100.00;102872.75;5170089;28;20491;-78
2021/04/16 04:25:49;;;;;;;12.13;5.60;;;;;;;-0.65;100.00;102876.38;5170418;28;20026;-78
2021/04/16 04:28:19;;;;;;;11.13;4.97;;;;;;;-0.66;100.00;102883.38;5164601;28;20430;-77
2021/04/16 04:30:50;;;;;;;10.15;5.28;;;;;;;-0.65;100.00;102881.63;5170320;28;20041;-78
2021/04/16 04:33:21;;;;;;;13.77;6.20;;;;;;;-0.72;100.00;102883.56;5169751;28;20015;-78
2021/04/16 04:35:51;;;;;;;12.23;5.63;;;;;;;-0.74;100.00;102877.47;5168675;28;20026;-78
2021/04/16 04:38:22;;;;;;;10.55;5.90;;;;;;;-0.75;100.00;102886.31;5171681;28;20030;-78
2021/04/16 04:40:52;;;;;;;13.82;5.80;;;;;;;-0.74;100.00;102882.75;5171477;28;20057;-78
2021/04/16 04:43:23;;;;;;;11.02;5.45;;;;;;;-0.72;100.00;102880.06;5171860;28;20081;-78
2021/04/16 04:45:53;;;;;;;11.98;5.30;;;;;;;-0.77;100.00;102874.91;5171587;28;20022;-78
2021/04/16 04:48:23;;;;;;;13.60;5.53;;;;;;;-0.79;100.00;102877.63;5171217;28;20202;-78
2021/04/16 04:50:54;;;;;;;11.13;5.18;;;;;;;-0.81;100.00;102887.31;5170672;28;20440;-78
2021/04/16 04:53:25;;;;;;;12.90;6.20;;;;;;;-0.84;100.00;102891.84;5169933;28;20109;-78
2021/04/16 04:55:55;;;;;;;11.57;5.35;;;;;;;-0.81;100.00;102887.31;5170424;28;20030;-78
2021/04/16 04:58:26;;;;;;;12.20;5.28;;;;;;;-0.75;100.00;102883.66;5170767;28;20089;-78
2021/04/16 05:00:56;;;;;;;12.43;5.57;;;;;;;-0.74;100.00;102889.81;5169600;28;20022;-78
2021/04/16 05:03:27;;;;;;;14.25;6.15;;;;;;;-0.68;100.00;102890.47;5152693;28;20030;-78
2021/04/16 05:05:57;;;;;;;13.23;5.57;;;;;;;-0.66;100.00;102890.44;5170979;28;20026;-77
2021/04/16 05:08:27;;;;;;;18.77;5.38;;;;;;;-0.63;100.00;102885.06;5170915;28;20032;-78
2021/04/16 05:11:00;;;;;;;15.90;5.45;;;;;;;-0.60;100.00;102880.59;5171902;28;20030;-78
2021/04/16 05:13:31;;;;;;;12.55;5.28;;;;;;;-0.55;100.00;102878.69;5170783;28;20025;-78
2021/04/16 05:16:01;;;;;;;14.63;5.60;;;;;;;-0.52;100.00;102877.72;5167770;28;20472;-78
2021/04/16 05:18:31;;;;;;;10.10;5.18;;;;;;;-0.45;100.00;102883.66;5168735;28;20030;-78
2021/04/16 05:21:03;;;;;;;10.82;5.25;;;;;;;-0.39;100.00;102881.72;5168054;28;20033;-78
2021/04/16 05:23:34;;;;;;;12.35;5.40;;;;;;;-0.23;100.00;102884.75;5168837;28;20423;-78
2021/04/16 05:26:04;;;;;;;10.77;5.15;;;;;;;0.27;100.00;102882.28;5167175;28;20022;-77
2021/04/16 05:28:34;;;;;;;11.13;5.38;;;;;;;0.89;100.00;102895.13;5163924;28;20061;-78
2021/04/16 05:31:05;;;;;;;10.60;4.97;;;;;;;1.43;100.00;102888.78;5169740;28;20033;-79
2021/04/16 05:33:35;;;;;;;12.05;5.45;;;;;;;1.66;100.00;102892.34;5166061;28;20030;-78
2021/04/16 05:36:06;;;;;;;9.85;5.00;;;;;;;2.17;100.00;102897.38;5167579;28;20023;-78
2021/04/16 05:38:36;;;;;;;9.27;4.63;;;;;;;2.67;100.00;102910.31;5166404;28;20030;-78
2021/04/16 05:41:07;;;;;;;8.93;4.22;;;;;;;2.76;100.00;102907.28;5166547;28;20085;-79
2021/04/16 05:43:37;;;;;;;8.82;4.68;;;;;;;3.19;100.00;102901.88;5166434;28;20029;-78
2021/04/16 05:46:08;;;;;;;11.05;4.60;;;;;;;3.50;100.00;102902.19;5166518;28;20049;-79
2021/04/16 05:48:39;;;;;;;9.77;3.47;;;;;;;3.80;100.00;102907.88;5166431;28;20029;-78
2021/04/16 05:51:10;;;;;;;7.28;4.07;;;;;;;4.21;100.00;102912.16;5162386;28;20057;-77
2021/04/16 05:53:40;;;;;;;9.20;4.20;;;;;;;4.57;100.00;102915.66;5156909;28;20022;-77
2021/04/16 05:56:11;;;;;;;9.00;3.47;;;;;;;4.74;100.00;102909.47;5165236;28;20034;-78
2021/04/16 05:58:42;;;;;;;8.93;3.88;;;;;;;4.72;100.00;102913.16;5167931;28;20092;-77
2021/04/16 06:01:12;;;;;;;10.68;4.10;;;;;;;4.76;100.00;102914.72;5167968;28;20026;-78
2021/04/16 06:03:45;;;;;;;9.98;4.07;;;;;;;4.73;100.00;102920.22;5170099;28;20065;-78
2021/04/16 06:06:16;;;;;;;7.85;4.10;;;;;;;4.52;100.00;102919.47;5168547;28;20030;-78
2021/04/16 06:08:47;;;;;;;11.82;4.40;;;;;;;4.41;100.00;102910.22;5169019;28;20029;-78
2021/04/16 06:11:17;;;;;;;9.18;4.05;;;;;;;4.01;100.00;102918.41;5170174;28;20188;-79
2021/04/16 06:13:48;;;;;;;10.70;3.92;;;;;;;3.49;100.00;102919.06;5169728;28;20081;-77
2021/04/16 06:16:19;;;;;;;11.80;4.00;;;;;;;3.03;100.00;102925.56;5167369;28;20042;-78
2021/04/16 06:18:50;;;;;;;11.43;4.20;;;;;;;2.69;100.00;102924.34;5167804;28;20484;-78
2021/04/16 06:21:21;;;;;;;8.05;4.55;;;;;;;2.47;100.00;102923.53;5166101;28;20105;-78
2021/04/16 06:23:51;;;;;;;8.23;4.25;;;;;;;2.32;100.00;102928.53;5167622;28;20086;-79
2021/04/16 06:26:24;;;;;;;8.38;4.20;;;;;;;2.25;100.00;102920.88;5161702;28;20022;-78
2021/04/16 06:28:54;;;;;;;11.02;4.88;;;;;;;2.22;100.00;102921.88;5167953;28;20030;-77
2021/04/16 06:31:25;;;;;;;7.45;4.25;;;;;;;2.25;100.00;102927.03;5167769;28;20026;-79
2021/04/16 06:33:56;;;;;;;12.07;5.15;;;;;;;2.22;100.00;102926.31;5168532;28;20439;-78
2021/04/16 06:36:26;;;;;;;11.85;4.35;;;;;;;2.28;100.00;102918.97;5169355;28;20101;-78
2021/04/16 06:38:57;;;;;;;10.27;4.97;;;;;;;2.42;100.00;102915.78;5169472;28;20368;-77
2021/04/16 06:41:30;;;;;;;8.23;4.47;;;;;;;2.60;100.00;102927.38;5169340;28;20022;-78
2021/04/16 06:44:11;;;;;;;10.20;4.53;;;;;;;2.67;100.00;102918.25;5169115;28;20036;-78
2021/04/16 06:46:45;;;;;;;12.30;4.95;;;;;;;2.79;100.00;102923.03;5169748;28;20403;-79
2021/04/16 06:49:23;;;;;;;10.48;5.10;;;;;;;2.94;100.00;102923.31;5163936;28;20035;-78
2021/04/16 06:52:02;;;;;;;7.43;4.20;;;;;;;3.05;100.00;102915.75;5162237;28;20022;-78
2021/04/16 06:54:51;;;;;;;11.55;4.07;;;;;;;3.18;100.00;102905.47;5166828;28;20146;-77
2021/04/16 06:57:37;;;;;;;6.03;3.88;;;;;;;3.25;100.00;102907.75;5166141;28;20068;-78
2021/04/16 07:00:20;;;;;;;10.60;4.50;;;;;;;3.42;100.00;102911.47;5166992;28;20471;-78
2021/04/16 07:02:59;;;;;;;10.88;4.78;;;;;;;3.59;100.00;102908.88;5168007;28;20026;-77
2021/04/16 07:05:37;;;;;;;9.07;4.38;;;;;;;3.78;100.00;102904.44;5157426;28;20109;-79
2021/04/16 07:08:20;;;;;;;11.02;5.05;;;;;;;3.94;100.00;102909.03;5169041;28;20030;-79
2021/04/16 07:10:54;;;;;;;10.38;4.13;;;;;;;4.00;100.00;102912.25;5168065;28;20054;-78
2021/04/16 07:13:34;;;;;;;9.95;4.57;;;;;;;4.00;100.00;102912.25;5168851;28;20102;-79
2021/04/16 07:16:07;;;;;;;12.40;4.63;;;;;;;4.08;100.00;102917.22;5169247;28;20030;-78
2021/04/16 07:18:43;;;;;;;11.43;4.60;;;;;;;4.19;100.00;102919.34;5165739;28;20037;-77
2021/04/16 07:21:17;;;;;;;9.48;4.00;;;;;;;4.35;100.00;102913.19;5167737;28;20030;-78
2021/04/16 07:23:51;;;;;;;9.75;4.28;;;;;;;4.58;100.00;102919.19;5169160;28;20026;-78
2021/04/16 07:26:21;;;;;;;13.85;4.43;;;;;;;4.81;100.00;102910.88;5168341;28;20045;-78
2021/04/16 07:28:55;;;;;;;7.80;4.75;;;;;;;4.95;100.00;102926.13;5163839;28;20041;-79
2021/04/16 07:31:42;;;;;;;9.38;4.20;;;;;;;5.03;100.00;102923.09;5167965;28;20030;-79
2021/04/16 07:34:28;;;;;;;15.27;4.90;;;;;;;5.08;100.00;102923.72;5167348;28;20546;-77
2021/04/16 07:37:10;;;;;;;8.55;4.43;;;;;;;5.24;100.00;102923.78;5162730;28;20256;-77
2021/04/16 07:39:49;;;;;;;13.57;4.82;;;;;;;5.32;100.00;102924.19;5165591;28;20061;-77
2021/04/16 07:42:24;;;;;;;13.05;4.57;;;;;;;5.41;100.00;102926.38;5148551;28;20428;-76
2021/04/16 07:45:00;;;;;;;8.55;4.50;;;;;;;5.49;100.00;102931.31;5163963;28;20037;-77
2021/04/16 07:47:33;;;;;;;12.63;5.05;;;;;;;5.56;100.00;102933.53;5164545;28;20022;-77
2021/04/16 07:50:06;;;;;;;10.93;5.07;;;;;;;5.60;100.00;102924.44;5164194;28;20030;-77
2021/04/16 07:52:44;;;;;;;10.43;5.15;;;;;;;5.70;100.00;102932.81;5165492;28;20044;-77
2021/04/16 07:55:25;;;;;;;9.90;4.68;;;;;;;5.77;100.00;102927.97;5165601;28;20464;-77
2021/04/16 07:58:04;;;;;;;9.05;4.22;;;;;;;5.94;100.00;102926.16;5164633;28;20030;-77
2021/04/16 08:00:40;;;;;;;15.32;4.88;;;;;;;6.10;100.00;102934.16;5165489;28;20030;-77
2021/04/16 08:03:14;;;;;;;10.18;4.72;;;;;;;6.31;100.00;102933.88;5162404;28;20071;-78
2021/04/16 08:05:57;;;;;;;22.85;4.80;;;;;;;6.48;100.00;102931.97;5162003;28;20030;-77
2021/04/16 08:08:31;;;;;;;14.10;4.60;;;;;;;6.54;100.00;102930.75;5144271;28;20034;-77
2021/04/16 08:11:04;;;;;;;12.25;4.60;;;;;;;6.61;100.00;102934.75;5157209;28;20042;-79
2021/04/16 08:13:51;;;;;;;11.60;4.40;;;;;;;6.69;100.00;102932.53;5165816;28;20460;-78
2021/04/16 08:16:33;;;;;;;11.68;4.70;;;;;;;6.97;100.00;102937.06;5164535;28;20038;-78
2021/04/16 08:19:03;;;;;;;10.40;4.38;;;;;;;7.22;100.00;102935.56;5166624;28;20053;-78
2021/04/16 08:21:39;;;;;;;9.90;5.35;;;;;;;7.56;100.00;102934.38;5157417;28;20026;-80
2021/04/16 08:24:17;;;;;;;;;;;;;;;7.67;100.00;102928.34;5158720;28;20030;-78
2021/04/16 08:27:03;;;;;;;11.75;4.75;;;;;;;7.64;100.00;102929.41;5178146;28;19910;-78
2021/04/16 08:29:36;;;;;;;;;;;;;;;7.48;100.00;102928.63;5157611;28;20037;-78
2021/04/16 08:32:28;;;;;;;12.95;4.45;;;;;;;7.55;100.00;102929.13;5165999;28;19910;-78
2021/04/16 08:35:03;;;;;;;10.98;4.97;;;;;;;7.61;100.00;102929.59;5168289;28;20104;-80
2021/04/16 08:37:42;;;;;;;13.82;4.50;;;;;;;7.56;100.00;102925.50;5167821;28;20038;-81
2021/04/16 08:40:22;;;;;;;9.00;4.65;;;;;;;7.46;100.00;102935.88;5169071;28;20033;-80
2021/04/16 08:42:56;;;;;;;13.05;5.30;;;;;;;7.37;100.00;102933.78;5169274;28;20018;-79
2021/04/16 08:45:31;;;;;;;13.85;5.28;;;;;;;7.46;100.00;102933.22;5166006;28;20029;-79
2021/04/16 08:48:10;;;;;;;;;;;;;;;7.55;100.00;102926.44;5165215;28;20110;-79
2021/04/16 08:50:46;;;;;;;14.07;5.00;;;;;;;7.59;100.00;102919.97;5164909;28;19910;-79
2021/04/16 08:53:16;;;;;;;11.38;4.43;;;;;;;7.51;100.00;102913.28;5165362;28;20026;-79
2021/04/16 08:55:51;;;;;;;8.50;4.03;;;;;;;7.48;100.00;102918.84;5164862;28;20029;-78
2021/04/16 08:58:31;;;;;;;12.77;5.05;;;;;;;7.62;100.00;102917.94;5164237;28;20492;-78
2021/04/16 09:01:07;;;;;;;10.25;4.70;;;;;;;7.78;98.96;102913.38;5165098;28;20029;-79
2021/04/16 09:03:39;;;;;;;12.80;4.72;;;;;;;7.68;100.00;102916.69;5165452;28;20375;-78
2021/04/16 09:06:23;;;;;;;8.88;4.47;;;;;;;7.88;100.00;102918.09;5164246;28;20042;-78
2021/04/16 09:08:54;;;;;;;9.10;3.97;;;;;;;8.08;100.00;102909.66;5165616;28;20026;-78
2021/04/16 09:11:43;;;;;;;9.55;4.75;;;;;;;8.11;100.00;102914.81;5163809;28;20030;-79
2021/04/16 09:14:15;;;;;;;10.52;4.10;;;;;;;8.29;100.00;102910.94;5165281;28;20019;-79
2021/04/16 09:16:56;;;;;;;8.88;3.88;;;;;;;8.46;92.57;102904.50;5164055;28;20038;-78
2021/04/16 09:19:26;;;;;;;8.85;4.00;;;;;;;8.51;97.04;102912.22;5165181;28;20407;-78
2021/04/16 09:22:01;;;;;;;8.00;3.92;;;;;;;8.46;100.00;102907.16;5164686;28;20038;-79
2021/04/16 09:24:47;;;;;;;18.25;4.28;;;;;;;8.82;100.00;102906.50;5164310;28;20042;-79
2021/04/16 09:27:25;;;;;;;12.13;4.00;;;;;;;8.93;83.33;102915.63;5151464;28;20046;-79
2021/04/16 09:30:10;;;;;;;7.90;3.90;;;;;;;8.96;84.16;102900.22;5165101;28;20034;-81
2021/04/16 09:32:47;;;;;;;6.80;3.63;;;;;;;9.14;86.69;102902.59;5164955;28;20408;-79
2021/04/16 09:35:17;;;;;;;8.02;3.97;;;;;;;9.14;80.67;102907.94;5164958;28;20394;-78
2021/04/16 09:37:50;;;;;;;10.73;4.35;;;;;;;9.13;82.87;102900.84;5164967;28;20031;-79
2021/04/16 09:40:22;;;;;;;8.20;4.05;;;;;;;9.18;70.09;102910.28;5164452;28;20109;-79
2021/04/16 09:42:55;;;;;;;10.70;3.97;;;;;;;9.18;70.37;102898.72;5164329;28;20563;-79
2021/04/16 09:45:30;;;;;;;7.75;3.35;;;;;;;9.40;72.35;102892.72;5164530;28;20143;-80
2021/04/16 09:48:04;;;;;;;11.88;4.18;;;;;;;9.67;73.83;102893.41;5164937;28;20460;-80
2021/04/16 09:50:43;;;;;;;7.40;3.28;;;;;;;9.92;66.28;102900.53;5164711;28;20460;-81
2021/04/16 09:53:22;;;;;;;7.53;3.50;;;;;;;9.81;61.42;102882.56;5164739;28;20069;-79
2021/04/16 09:58:31;;;;;;;6.18;3.45;;;;;;;9.78;61.64;102892.63;5164566;28;20038;-78
2021/04/16 10:01:09;;;;;;;8.55;3.55;;;;;;;9.93;67.21;102880.78;5164448;28;20026;-79
2021/04/16 10:03:46;;;;;;;6.43;3.55;;;;;;;10.03;64.03;102887.19;5163403;28;20026;-79
2021/04/16 10:06:32;;;;;;;8.82;3.55;;;;;;;10.24;64.90;102882.13;5163899;28;20114;-80
2021/04/16 10:09:21;;;;;;;8.95;3.67;;;;;;;10.41;62.16;102883.53;5164468;28;20038;-78
2021/04/16 10:12:12;;;;;;;7.82;3.45;;;;;;;10.36;55.81;102883.88;5152354;28;20028;-80
2021/04/16 10:14:43;;;;;;;6.75;3.50;;;;;;;10.48;56.26;102879.38;5163741;28;20034;-80
2021/04/16 10:17:13;;;;;;;6.95;3.38;;;;;;;10.54;55.17;102878.06;5164192;28;20026;-79
2021/04/16 10:19:49;;;;;;;5.60;2.75;;;;;;;10.51;49.89;102870.25;5166661;28;20029;-79
2021/04/16 10:22:20;;;;;;;9.50;3.95;;;;;;;10.54;50.48;102865.53;5165383;28;20049;-80
2021/04/16 10:28:36;;;;;;;4.75;2.97;;;;;;;10.92;50.29;102868.91;5151410;28;20038;-79
2021/04/16 10:48:49;;;;;;;4.57;2.80;;;;;;;10.50;49.23;102850.63;5172503;28;20026;-80
2021/04/16 11:31:38;;;;;;;6.47;2.50;;;;;;;11.23;44.82;102792.97;5159908;28;20031;-83
2021/04/16 11:45:14;;;;;;;6.22;2.40;;;;;;;11.54;45.38;102799.41;5164944;28;20026;-84
2021/04/16 12:39:05;;;;;;;4.05;2.20;;;;;;;12.21;41.32;102767.94;5180614;28;20029;-83
2021/04/16 12:41:43;;;;;;;6.13;2.22;;;;;;;12.35;40.64;102763.06;5181448;28;20022;-82
2021/04/16 12:44:23;;;;;;;6.80;2.90;;;;;;;12.43;38.41;102754.34;5179520;28;20046;-82
2021/04/16 12:46:57;;;;;;;5.20;2.40;;;;;;;12.49;40.36;102758.31;5181051;28;20014;-83
2021/04/16 12:49:28;;;;;;;4.00;2.20;;;;;;;12.54;37.90;102756.09;5180929;28;20038;-82
2021/04/16 12:51:59;;;;;;;5.03;2.30;;;;;;;12.53;37.82;102749.84;5148448;28;20098;-81
2021/04/16 12:54:29;;;;;;;5.18;2.28;;;;;;;12.21;37.25;102752.63;5178562;28;20018;-81
2021/04/16 12:56:59;;;;;;;4.85;2.15;;;;;;;12.11;38.89;102741.81;5182416;28;20054;-82
2021/04/16 12:59:30;;;;;;;5.00;2.10;;;;;;;12.27;41.12;102745.88;5183545;28;20027;-83
2021/04/16 13:02:00;;;;;;;3.35;2.15;;;;;;;12.70;37.72;102746.56;5184081;28;20069;-81
2021/04/16 13:04:37;;;;;;;4.85;2.60;;;;;;;13.05;38.44;102739.91;5168513;28;20033;-82
2021/04/16 13:07:08;;;;;;;3.13;2.30;;;;;;;13.30;39.98;102735.88;5184201;28;20026;-81
2021/04/16 13:09:38;;;;;;;7.97;2.80;;;;;;;13.16;38.79;102738.94;5184886;28;20440;-82
2021/04/16 13:12:09;;;;;;;7.70;3.00;;;;;;;12.99;41.36;102748.50;5168830;28;20097;-82
2021/04/16 13:14:40;;;;;;;10.93;4.80;;;;;;;13.16;39.32;102736.25;5150843;28;20077;-81
2021/04/16 13:17:14;;;;;;;6.68;2.47;;;;;;;13.51;40.71;102735.81;5182541;28;20080;-82
2021/04/16 13:19:45;;;;;;;4.80;2.78;;;;;;;13.64;39.50;102728.28;5184682;28;20028;-83
2021/04/16 13:22:18;;;;;;;4.15;2.70;;;;;;;13.88;36.90;102741.34;5168292;28;20022;-83
2021/04/16 13:24:50;;;;;;;4.65;2.45;;;;;;;13.98;37.61;102733.25;5185211;28;20022;-82
2021/04/16 13:27:24;;;;;;;5.40;2.60;;;;;;;13.66;36.99;102725.47;5184458;28;20018;-83
2021/04/16 13:29:54;;;;;;;5.28;3.10;;;;;;;13.27;38.17;102728.09;5184888;28;20033;-86
2021/04/16 13:32:34;;;;;;;4.10;2.30;;;;;;;12.96;37.43;102728.09;5184396;28;20023;-85
2021/04/16 13:35:05;;;;;;;3.70;2.25;;;;;;;12.65;38.47;102726.38;5185076;28;20049;-84
2021/04/16 13:37:36;;;;;;;8.00;2.65;;;;;;;12.64;39.58;102717.47;5185439;28;20026;-83
2021/04/16 13:40:08;;;;;;;3.47;2.45;;;;;;;12.76;37.81;102712.00;5184703;28;20027;-86
2021/04/16 13:42:38;;;;;;;6.07;3.00;;;;;;;13.11;40.19;102723.19;5186815;28;20225;-85
2021/04/16 13:45:10;;;;;;;4.07;2.22;;;;;;;13.10;39.65;102710.72;5168932;28;20023;-86
2021/04/16 13:47:46;;;;;;;7.80;2.65;;;;;;;13.18;38.24;102710.84;5186270;28;20045;-84
2021/04/16 13:50:17;;;;;;;6.85;3.10;;;;;;;13.42;38.73;102721.31;5183763;28;20026;-83
2021/04/16 13:52:49;;;;;;;5.93;2.70;;;;;;;13.45;36.61;102721.03;5186083;28;20070;-84
2021/04/16 13:55:20;;;;;;;6.18;2.38;;;;;;;13.27;39.52;102700.28;5185482;28;20023;-84